PWSweather.com
Personal Weather Stations
Station Observations
SHAHALMS1
Eftra, Falkenberg, HA

EftraFalkenberg, HA

Lat: 56.85, Lon: 12.65

Elevation: 140

Station Type:

http://hem.passagen.se/risarp101

High Low Average
Temperature 70.7°F21.5°C 57.6°F14.2°C 64.2°F17.9°C
Dew Point 64.1°F17.8°C 48.7°F9.3°C 56.9°F13.8°C
Winds 8.9 mph 14.3 kmh Calm Calm 5.0 mph W8.0 kmh W
Wind Gusts 28.3 mph45.5 kmh -- 14.0 mph22.5 kmh
Humidity 95% 58% 78%
Pressure 29.95 in1014.2 mb 29.71 in1006.1 mb -
Precipitation 0.47 in11.9 mm - -
Hour Temp Dew Point Humidity Winds Wind Gusts Pressure Precip Precip Rate Daily Precip Total
12:00 AM 62.4°F16.9°C 60.7°F15.9°C 94% 4.6 mph S7.4 kmh S 11.5 mph18.5 kmh 29.80 in1009.1 mb 0.19 in4.8 mm 0.00 in0.0 mm 0.20 in5.1 mm
12:15 AM 62.6°F17.0°C 60.5°F15.8°C 93% 4.9 mph S7.9 kmh S 14.0 mph22.5 kmh 29.77 in1008.1 mb 0.19 in4.8 mm 0.00 in0.0 mm 0.24 in6.1 mm
12:30 AM 62.8°F17.1°C 61.0°F16.1°C 94% 6.6 mph SSW10.6 kmh SSW 18.3 mph29.5 kmh 29.74 in1007.1 mb 0.15 in3.8 mm 0.00 in0.0 mm 0.29 in7.4 mm
12:45 AM 63.0°F17.2°C 61.2°F16.2°C 94% 8.8 mph S14.2 kmh S 28.3 mph45.5 kmh 29.74 in1007.1 mb 0.19 in4.8 mm 0.16 in4.1 mm 0.33 in8.4 mm
01:00 AM 63.1°F17.3°C 61.4°F16.3°C 94% 8.5 mph SSW13.7 kmh SSW 21.8 mph35.1 kmh 29.74 in1007.1 mb 0.19 in4.8 mm 0.00 in0.0 mm 0.38 in9.7 mm
01:15 AM 63.1°F17.3°C 61.7°F16.5°C 95% 7.4 mph S11.9 kmh S 19.7 mph31.7 kmh 29.74 in1007.1 mb 0.14 in3.6 mm 0.00 in0.0 mm 0.38 in9.7 mm
01:30 AM 63.5°F17.5°C 62.0°F16.7°C 95% 8.1 mph WSW13.0 kmh WSW 19.7 mph31.7 kmh 29.74 in1007.1 mb 0.09 in2.3 mm 0.00 in0.0 mm 0.38 in9.7 mm
01:45 AM 63.5°F17.5°C 61.7°F16.5°C 94% 5.3 mph SW8.5 kmh SW 14.0 mph22.5 kmh 29.74 in1007.1 mb 0.09 in2.3 mm 0.00 in0.0 mm 0.43 in10.9 mm
02:00 AM 63.7°F17.6°C 62.2°F16.8°C 95% 5.4 mph W8.7 kmh W 12.5 mph20.1 kmh 29.74 in1007.1 mb 0.05 in1.3 mm 0.00 in0.0 mm 0.43 in10.9 mm
02:15 AM 63.9°F17.7°C 62.4°F16.9°C 95% 5.5 mph SW8.9 kmh SW 13.6 mph21.9 kmh 29.74 in1007.1 mb 0.05 in1.3 mm 0.00 in0.0 mm 0.43 in10.9 mm
02:30 AM 63.9°F17.7°C 62.1°F16.7°C 94% 4.6 mph WNW7.4 kmh WNW 11.5 mph18.5 kmh 29.71 in1006.1 mb 0.05 in1.3 mm 0.00 in0.0 mm 0.43 in10.9 mm
02:45 AM 63.9°F17.7°C 62.1°F16.7°C 94% 4.3 mph W6.9 kmh W 8.9 mph14.3 kmh 29.71 in1006.1 mb 0.00 in0.0 mm 0.00 in0.0 mm 0.43 in10.9 mm
03:00 AM 63.9°F17.7°C 62.1°F16.7°C 94% 4.9 mph W7.9 kmh W 12.2 mph19.6 kmh 29.71 in1006.1 mb 0.00 in0.0 mm 0.00 in0.0 mm 0.43 in10.9 mm
03:15 AM 63.9°F17.7°C 62.1°F16.7°C 94% 4.2 mph W6.8 kmh W 9.7 mph15.6 kmh 29.71 in1006.1 mb 0.00 in0.0 mm 0.00 in0.0 mm 0.43 in10.9 mm
03:30 AM 63.9°F17.7°C 62.1°F16.7°C 94% 4.7 mph W7.6 kmh W 17.5 mph28.2 kmh 29.71 in1006.1 mb 0.00 in0.0 mm 0.00 in0.0 mm 0.43 in10.9 mm
03:45 AM 63.7°F17.6°C 61.9°F16.6°C 94% 3.1 mph W5.0 kmh W 9.3 mph15.0 kmh 29.71 in1006.1 mb 0.00 in0.0 mm 0.00 in0.0 mm 0.43 in10.9 mm
04:00 AM 63.7°F17.6°C 61.9°F16.6°C 94% 3.9 mph W6.3 kmh W 19.3 mph31.1 kmh 29.71 in1006.1 mb 0.00 in0.0 mm 0.00 in0.0 mm 0.43 in10.9 mm
04:15 AM 63.7°F17.6°C 61.9°F16.6°C 94% 4.0 mph W6.4 kmh W 15.0 mph24.1 kmh 29.71 in1006.1 mb 0.00 in0.0 mm 0.00 in0.0 mm 0.43 in10.9 mm
04:30 AM 63.5°F17.5°C 61.7°F16.5°C 94% 3.9 mph WNW6.3 kmh WNW 11.8 mph19.0 kmh 29.71 in1006.1 mb 0.00 in0.0 mm 0.00 in0.0 mm 0.43 in10.9 mm
04:45 AM 63.5°F17.5°C 61.7°F16.5°C 94% 1.9 mph W3.1 kmh W 6.1 mph9.8 kmh 29.71 in1006.1 mb 0.05 in1.3 mm 0.20 in5.1 mm 0.47 in11.9 mm
05:00 AM 63.5°F17.5°C 61.7°F16.5°C 94% 2.8 mph W4.5 kmh W 8.9 mph14.3 kmh 29.71 in1006.1 mb 0.05 in1.3 mm 0.00 in0.0 mm 0.47 in11.9 mm
05:15 AM 63.5°F17.5°C 61.7°F16.5°C 94% 2.0 mph W3.2 kmh W 10.4 mph16.7 kmh 29.71 in1006.1 mb 0.05 in1.3 mm 0.00 in0.0 mm 0.47 in11.9 mm
05:30 AM 63.7°F17.6°C 62.2°F16.8°C 95% 2.8 mph W4.5 kmh W 6.1 mph9.8 kmh 29.71 in1006.1 mb 0.05 in1.3 mm 0.00 in0.0 mm 0.47 in11.9 mm
05:45 AM 63.9°F17.7°C 62.4°F16.9°C 95% 3.7 mph W6.0 kmh W 11.1 mph17.9 kmh 29.71 in1006.1 mb 0.00 in0.0 mm 0.00 in0.0 mm 0.47 in11.9 mm
06:00 AM 64.0°F17.8°C 62.6°F17.0°C 95% 4.9 mph WNW7.9 kmh WNW 10.4 mph16.7 kmh 29.71 in1006.1 mb 0.00 in0.0 mm 0.00 in0.0 mm 0.47 in11.9 mm
06:15 AM 64.0°F17.8°C 62.6°F17.0°C 95% 4.3 mph W6.9 kmh W 8.9 mph14.3 kmh 29.71 in1006.1 mb 0.00 in0.0 mm 0.00 in0.0 mm 0.47 in11.9 mm
06:30 AM 64.2°F17.9°C 62.5°F16.9°C 94% 4.1 mph W6.6 kmh W 7.9 mph12.7 kmh 29.71 in1006.1 mb 0.00 in0.0 mm 0.00 in0.0 mm 0.47 in11.9 mm
06:45 AM 64.2°F17.9°C 62.5°F16.9°C 94% 5.0 mph W8.0 kmh W 11.8 mph19.0 kmh 29.71 in1006.1 mb 0.00 in0.0 mm 0.00 in0.0 mm 0.47 in11.9 mm
07:00 AM 64.8°F18.2°C 63.0°F17.2°C 94% 4.2 mph W6.8 kmh W 9.7 mph15.6 kmh 29.71 in1006.1 mb 0.00 in0.0 mm 0.00 in0.0 mm 0.47 in11.9 mm
07:15 AM 64.9°F18.3°C 63.2°F17.3°C 94% 4.5 mph W7.2 kmh W 10.4 mph16.7 kmh 29.71 in1006.1 mb 0.00 in0.0 mm 0.00 in0.0 mm 0.47 in11.9 mm
07:30 AM 65.8°F18.8°C 64.1°F17.8°C 94% 4.2 mph W6.8 kmh W 10.7 mph17.2 kmh 29.74 in1007.1 mb 0.00 in0.0 mm 0.00 in0.0 mm 0.47 in11.9 mm
07:45 AM 65.7°F18.7°C 63.6°F17.6°C 93% 5.4 mph W8.7 kmh W 10.7 mph17.2 kmh 29.74 in1007.1 mb 0.00 in0.0 mm 0.00 in0.0 mm 0.47 in11.9 mm
08:00 AM 65.5°F18.6°C 63.1°F17.3°C 92% 4.6 mph WNW7.4 kmh WNW 12.9 mph20.8 kmh 29.74 in1007.1 mb 0.00 in0.0 mm 0.00 in0.0 mm 0.47 in11.9 mm
08:15 AM 64.9°F18.3°C 62.2°F16.8°C 91% 5.4 mph WNW8.7 kmh WNW 12.9 mph20.8 kmh 29.74 in1007.1 mb 0.00 in0.0 mm 0.00 in0.0 mm 0.47 in11.9 mm
08:30 AM 65.5°F18.6°C 63.1°F17.3°C 92% 4.1 mph NW6.6 kmh NW 10.4 mph16.7 kmh 29.71 in1006.1 mb 0.00 in0.0 mm 0.00 in0.0 mm 0.47 in11.9 mm
08:45 AM 66.0°F18.9°C 63.3°F17.4°C 91% 5.9 mph W9.5 kmh W 16.5 mph26.6 kmh 29.74 in1007.1 mb 0.00 in0.0 mm 0.00 in0.0 mm 0.47 in11.9 mm
09:00 AM 66.7°F19.3°C 63.4°F17.4°C 89% 5.9 mph WNW9.5 kmh WNW 15.7 mph25.3 kmh 29.74 in1007.1 mb 0.00 in0.0 mm 0.00 in0.0 mm 0.47 in11.9 mm
09:15 AM 66.9°F19.4°C 62.6°F17.0°C 86% 6.1 mph W9.8 kmh W 15.4 mph24.8 kmh 29.74 in1007.1 mb 0.00 in0.0 mm 0.00 in0.0 mm 0.47 in11.9 mm
09:30 AM 67.1°F19.5°C 62.1°F16.7°C 84% 6.5 mph W10.5 kmh W 16.1 mph25.9 kmh 29.74 in1007.1 mb 0.00 in0.0 mm 0.00 in0.0 mm 0.47 in11.9 mm
09:45 AM 67.1°F19.5°C 62.1°F16.7°C 84% 6.3 mph W10.1 kmh W 20.0 mph32.2 kmh 29.77 in1008.1 mb 0.00 in0.0 mm 0.00 in0.0 mm 0.47 in11.9 mm
10:00 AM 67.6°F19.8°C 62.3°F16.8°C 83% 7.7 mph WNW12.4 kmh WNW 21.1 mph34.0 kmh 29.77 in1008.1 mb 0.00 in0.0 mm 0.00 in0.0 mm 0.47 in11.9 mm
10:15 AM 67.8°F19.9°C 61.8°F16.6°C 81% 6.3 mph WNW10.1 kmh WNW 23.3 mph37.5 kmh 29.77 in1008.1 mb 0.00 in0.0 mm 0.00 in0.0 mm 0.47 in11.9 mm
10:30 AM 66.6°F19.2°C 59.1°F15.1°C 77% 7.2 mph WNW11.6 kmh WNW 19.7 mph31.7 kmh 29.80 in1009.1 mb 0.00 in0.0 mm 0.00 in0.0 mm 0.47 in11.9 mm
10:45 AM 66.7°F19.3°C 58.2°F14.6°C 74% 7.0 mph WNW11.3 kmh WNW 17.2 mph27.7 kmh 29.80 in1009.1 mb 0.00 in0.0 mm 0.00 in0.0 mm 0.47 in11.9 mm
11:00 AM 67.3°F19.6°C 57.9°F14.4°C 72% 8.1 mph WNW13.0 kmh WNW 20.8 mph33.5 kmh 29.80 in1009.1 mb 0.00 in0.0 mm 0.00 in0.0 mm 0.47 in11.9 mm
11:15 AM 67.5°F19.7°C 58.5°F14.7°C 73% 6.6 mph WNW10.6 kmh WNW 15.0 mph24.1 kmh 29.80 in1009.1 mb 0.00 in0.0 mm 0.00 in0.0 mm 0.47 in11.9 mm
11:30 AM 68.9°F20.5°C 58.7°F14.8°C 70% 6.6 mph WNW10.6 kmh WNW 24.3 mph39.1 kmh 29.80 in1009.1 mb 0.00 in0.0 mm 0.00 in0.0 mm 0.47 in11.9 mm
11:45 AM 68.9°F20.5°C 57.1°F13.9°C 66% 6.7 mph W10.8 kmh W 19.0 mph30.6 kmh 29.80 in1009.1 mb 0.00 in0.0 mm 0.00 in0.0 mm 0.47 in11.9 mm
12:00 PM 69.3°F20.7°C 57.4°F14.1°C 66% 7.9 mph W12.7 kmh W 20.4 mph32.8 kmh 29.80 in1009.1 mb 0.00 in0.0 mm 0.00 in0.0 mm 0.47 in11.9 mm
12:15 PM 69.6°F20.9°C 58.2°F14.6°C 67% 6.7 mph WNW10.8 kmh WNW 13.6 mph21.9 kmh 29.77 in1008.1 mb 0.00 in0.0 mm 0.00 in0.0 mm 0.47 in11.9 mm
12:30 PM 69.1°F20.6°C 56.4°F13.6°C 64% 8.9 mph W14.3 kmh W 20.0 mph32.2 kmh 29.80 in1009.1 mb 0.00 in0.0 mm 0.00 in0.0 mm 0.47 in11.9 mm
12:45 PM 69.4°F20.8°C 57.2°F14.0°C 65% 7.0 mph WNW11.3 kmh WNW 19.0 mph30.6 kmh 29.80 in1009.1 mb 0.00 in0.0 mm 0.00 in0.0 mm 0.47 in11.9 mm
01:00 PM 69.6°F20.9°C 57.3°F14.1°C 65% 7.4 mph W11.9 kmh W 22.2 mph35.7 kmh 29.80 in1009.1 mb 0.00 in0.0 mm 0.00 in0.0 mm 0.47 in11.9 mm
01:15 PM 69.3°F20.7°C 56.6°F13.7°C 64% 7.8 mph WNW12.6 kmh WNW 20.0 mph32.2 kmh 29.80 in1009.1 mb 0.00 in0.0 mm 0.00 in0.0 mm 0.47 in11.9 mm
01:30 PM 70.7°F21.5°C 58.8°F14.9°C 66% 6.8 mph W10.9 kmh W 14.3 mph23.0 kmh 29.80 in1009.1 mb 0.00 in0.0 mm 0.00 in0.0 mm 0.47 in11.9 mm
01:45 PM 70.2°F21.2°C 56.5°F13.6°C 62% 8.9 mph W14.3 kmh W 26.1 mph42.0 kmh 29.83 in1010.2 mb 0.00 in0.0 mm 0.00 in0.0 mm 0.47 in11.9 mm
02:00 PM 70.7°F21.5°C 57.9°F14.4°C 64% 7.3 mph W11.7 kmh W 13.6 mph21.9 kmh 29.83 in1010.2 mb 0.00 in0.0 mm 0.00 in0.0 mm 0.47 in11.9 mm
02:15 PM 70.3°F21.3°C 57.1°F13.9°C 63% 6.6 mph WNW10.6 kmh WNW 18.3 mph29.5 kmh 29.83 in1010.2 mb 0.00 in0.0 mm 0.00 in0.0 mm 0.47 in11.9 mm
02:30 PM 69.4°F20.8°C 56.7°F13.7°C 64% 6.2 mph W10.0 kmh W 12.2 mph19.6 kmh 29.83 in1010.2 mb 0.00 in0.0 mm 0.00 in0.0 mm 0.47 in11.9 mm
02:45 PM 68.4°F20.2°C 53.9°F12.2°C 60% 7.0 mph NW11.3 kmh NW 21.1 mph34.0 kmh 29.83 in1010.2 mb 0.00 in0.0 mm 0.00 in0.0 mm 0.47 in11.9 mm
03:00 PM 67.6°F19.8°C 53.7°F12.1°C 61% 6.4 mph NW10.3 kmh NW 15.4 mph24.8 kmh 29.83 in1010.2 mb 0.00 in0.0 mm 0.00 in0.0 mm 0.47 in11.9 mm
03:15 PM 67.1°F19.5°C 53.2°F11.8°C 61% 6.2 mph NW10.0 kmh NW 17.2 mph27.7 kmh 29.86 in1011.2 mb 0.00 in0.0 mm 0.00 in0.0 mm 0.47 in11.9 mm
03:30 PM 66.6°F19.2°C 51.8°F11.0°C 59% 6.8 mph WNW10.9 kmh WNW 19.0 mph30.6 kmh 29.86 in1011.2 mb 0.00 in0.0 mm 0.00 in0.0 mm 0.47 in11.9 mm
03:45 PM 66.0°F18.9°C 50.8°F10.4°C 58% 6.7 mph WNW10.8 kmh WNW 20.0 mph32.2 kmh 29.89 in1012.2 mb 0.00 in0.0 mm 0.00 in0.0 mm 0.47 in11.9 mm
04:00 PM 66.0°F18.9°C 51.7°F10.9°C 60% 6.3 mph NW10.1 kmh NW 12.9 mph20.8 kmh 29.86 in1011.2 mb 0.00 in0.0 mm 0.00 in0.0 mm 0.47 in11.9 mm
04:15 PM 65.7°F18.7°C 50.9°F10.5°C 59% 5.4 mph NW8.7 kmh NW 11.8 mph19.0 kmh 29.86 in1011.2 mb 0.00 in0.0 mm 0.00 in0.0 mm 0.47 in11.9 mm
04:30 PM 65.7°F18.7°C 50.9°F10.5°C 59% 7.1 mph NW11.4 kmh NW 17.5 mph28.2 kmh 29.86 in1011.2 mb 0.00 in0.0 mm 0.00 in0.0 mm 0.47 in11.9 mm
04:45 PM 65.1°F18.4°C 50.4°F10.2°C 59% 4.7 mph NW7.6 kmh NW 12.2 mph19.6 kmh 29.86 in1011.2 mb 0.00 in0.0 mm 0.00 in0.0 mm 0.47 in11.9 mm
05:00 PM 65.3°F18.5°C 50.6°F10.3°C 59% 6.1 mph NW9.8 kmh NW 16.1 mph25.9 kmh 29.83 in1010.2 mb 0.00 in0.0 mm 0.00 in0.0 mm 0.47 in11.9 mm
05:15 PM 64.9°F18.3°C 50.3°F10.2°C 59% 7.2 mph NW11.6 kmh NW 17.2 mph27.7 kmh 29.86 in1011.2 mb 0.00 in0.0 mm 0.00 in0.0 mm 0.47 in11.9 mm
05:30 PM 64.4°F18.0°C 50.2°F10.1°C 60% 5.6 mph NW9.0 kmh NW 16.8 mph27.0 kmh 29.86 in1011.2 mb 0.00 in0.0 mm 0.00 in0.0 mm 0.47 in11.9 mm
05:45 PM 64.0°F17.8°C 49.9°F9.9°C 60% 7.8 mph WNW12.6 kmh WNW 20.0 mph32.2 kmh 29.83 in1010.2 mb 0.00 in0.0 mm 0.00 in0.0 mm 0.47 in11.9 mm
06:00 PM 63.5°F17.5°C 49.8°F9.9°C 61% 6.1 mph W9.8 kmh W 15.4 mph24.8 kmh 29.86 in1011.2 mb 0.00 in0.0 mm 0.00 in0.0 mm 0.47 in11.9 mm
06:15 PM 63.1°F17.3°C 49.0°F9.4°C 60% 6.6 mph WNW10.6 kmh WNW 16.8 mph27.0 kmh 29.86 in1011.2 mb 0.00 in0.0 mm 0.00 in0.0 mm 0.47 in11.9 mm
06:30 PM 62.8°F17.1°C 49.1°F9.5°C 61% 5.3 mph W8.5 kmh W 14.0 mph22.5 kmh 29.86 in1011.2 mb 0.00 in0.0 mm 0.00 in0.0 mm 0.47 in11.9 mm
06:45 PM 62.2°F16.8°C 49.5°F9.7°C 63% 4.4 mph W7.1 kmh W 12.5 mph20.1 kmh 29.86 in1011.2 mb 0.00 in0.0 mm 0.00 in0.0 mm 0.47 in11.9 mm
07:00 PM 61.7°F16.5°C 49.0°F9.4°C 63% 4.9 mph W7.9 kmh W 14.0 mph22.5 kmh 29.86 in1011.2 mb 0.00 in0.0 mm 0.00 in0.0 mm 0.47 in11.9 mm
07:15 PM 61.3°F16.3°C 49.1°F9.5°C 64% 3.6 mph W5.8 kmh W 7.9 mph12.7 kmh 29.86 in1011.2 mb 0.00 in0.0 mm 0.00 in0.0 mm 0.47 in11.9 mm
07:30 PM 61.0°F16.1°C 49.1°F9.5°C 65% 3.6 mph W5.8 kmh W 14.0 mph22.5 kmh 29.86 in1011.2 mb 0.00 in0.0 mm 0.00 in0.0 mm 0.47 in11.9 mm
07:45 PM 60.3°F15.7°C 49.3°F9.6°C 67% 1.6 mph W2.6 kmh W 9.3 mph15.0 kmh 29.89 in1012.2 mb 0.00 in0.0 mm 0.00 in0.0 mm 0.47 in11.9 mm
08:00 PM 59.5°F15.3°C 49.0°F9.4°C 68% 1.7 mph W2.7 kmh W 5.4 mph8.7 kmh 29.89 in1012.2 mb 0.00 in0.0 mm 0.00 in0.0 mm 0.47 in11.9 mm
08:15 PM 58.8°F14.9°C 48.7°F9.3°C 69% 2.3 mph W3.7 kmh W 8.9 mph14.3 kmh 29.89 in1012.2 mb 0.00 in0.0 mm 0.00 in0.0 mm 0.47 in11.9 mm
08:30 PM 58.5°F14.7°C 48.7°F9.3°C 70% 1.1 mph W1.8 kmh W 6.1 mph9.8 kmh 29.92 in1013.2 mb 0.00 in0.0 mm 0.00 in0.0 mm 0.47 in11.9 mm
08:45 PM 58.1°F14.5°C 48.7°F9.3°C 71% 0.6 mph W1.0 kmh W 4.7 mph7.6 kmh 29.92 in1013.2 mb 0.00 in0.0 mm 0.00 in0.0 mm 0.47 in11.9 mm
09:00 PM 57.7°F14.3°C 48.8°F9.3°C 72% 0.3 mph W0.5 kmh W 3.9 mph6.3 kmh 29.89 in1012.2 mb 0.00 in0.0 mm 0.00 in0.0 mm 0.47 in11.9 mm
09:15 PM 57.6°F14.2°C 49.0°F9.4°C 73% Calm Calm -- 29.92 in1013.2 mb 0.00 in0.0 mm 0.00 in0.0 mm 0.47 in11.9 mm
09:30 PM 57.6°F14.2°C 49.3°F9.6°C 74% 2.1 mph W3.4 kmh W 6.4 mph10.3 kmh 29.92 in1013.2 mb 0.00 in0.0 mm 0.00 in0.0 mm 0.47 in11.9 mm
09:45 PM 58.1°F14.5°C 50.6°F10.3°C 76% 2.1 mph W3.4 kmh W 11.8 mph19.0 kmh 29.92 in1013.2 mb 0.00 in0.0 mm 0.00 in0.0 mm 0.47 in11.9 mm
10:00 PM 58.5°F14.7°C 51.3°F10.7°C 77% 3.4 mph W5.5 kmh W 9.3 mph15.0 kmh 29.92 in1013.2 mb 0.00 in0.0 mm 0.00 in0.0 mm 0.47 in11.9 mm
10:15 PM 58.8°F14.9°C 51.6°F10.9°C 77% 3.2 mph W5.1 kmh W 11.5 mph18.5 kmh 29.92 in1013.2 mb 0.00 in0.0 mm 0.00 in0.0 mm 0.47 in11.9 mm
10:30 PM 58.8°F14.9°C 52.0°F11.1°C 78% 2.8 mph WNW4.5 kmh WNW 10.0 mph16.1 kmh 29.92 in1013.2 mb 0.00 in0.0 mm 0.00 in0.0 mm 0.47 in11.9 mm
10:45 PM 58.5°F14.7°C 51.6°F10.9°C 78% 1.8 mph W2.9 kmh W 6.1 mph9.8 kmh 29.92 in1013.2 mb 0.00 in0.0 mm 0.00 in0.0 mm 0.47 in11.9 mm
11:00 PM 58.3°F14.6°C 51.4°F10.8°C 78% 1.9 mph W3.1 kmh W 8.6 mph13.8 kmh 29.95 in1014.2 mb 0.00 in0.0 mm 0.00 in0.0 mm 0.28 in7.1 mm
11:15 PM 58.3°F14.6°C 51.8°F11.0°C 79% 0.8 mph W1.3 kmh W 6.8 mph10.9 kmh 29.89 in1012.2 mb 0.00 in0.0 mm 0.00 in0.0 mm 0.28 in7.1 mm
11:30 PM 57.7°F14.3°C 51.3°F10.7°C 79% Calm Calm -- 29.92 in1013.2 mb 0.00 in0.0 mm 0.00 in0.0 mm 0.28 in7.1 mm
11:45 PM 57.6°F14.2°C 51.1°F10.6°C 79% 0.2 mph W0.3 kmh W 3.9 mph6.3 kmh 29.89 in1012.2 mb 0.00 in0.0 mm 0.00 in0.0 mm 0.28 in7.1 mm